createdAt,value
2023-01-26T00:01:45.066Z,16.20
2023-01-26T00:06:48.403Z,16.27
2023-01-26T00:11:52.876Z,15.57
2023-01-26T00:16:56.577Z,15.97
2023-01-26T00:22:00.081Z,16.90
2023-01-26T00:27:04.800Z,16.43
2023-01-26T00:38:49.155Z,16.60
2023-01-26T00:43:53.759Z,16.47
2023-01-26T00:48:57.470Z,18.47
2023-01-26T00:54:00.695Z,19.17
2023-01-26T00:59:05.986Z,18.53
2023-01-26T01:04:09.513Z,17.87
2023-01-26T01:09:13.193Z,17.80
2023-01-26T01:14:19.511Z,15.67
2023-01-26T01:19:23.669Z,17.30
2023-01-26T01:24:26.989Z,17.43
2023-01-26T01:29:31.539Z,16.63
2023-01-26T01:34:34.832Z,15.97
2023-01-26T01:39:38.074Z,17.67
2023-01-26T01:44:44.368Z,16.80
2023-01-26T01:49:52.576Z,17.70
2023-01-26T01:55:02.149Z,17.27
2023-01-26T02:00:11.747Z,18.03
2023-01-26T02:05:27.477Z,17.23
2023-01-26T02:10:32.196Z,17.00
2023-01-26T02:15:36.930Z,16.93
2023-01-26T02:20:47.662Z,16.90
2023-01-26T02:26:05.497Z,15.00
2023-01-26T02:31:11.332Z,17.20
2023-01-26T02:36:20.301Z,16.53
2023-01-26T02:41:38.839Z,15.70
2023-01-26T02:46:42.239Z,15.13
2023-01-26T02:51:45.567Z,14.77
2023-01-26T02:56:50.127Z,12.33
2023-01-26T03:01:54.676Z,13.30
2023-01-26T03:06:57.943Z,12.10
2023-01-26T03:12:02.721Z,10.80
2023-01-26T03:17:05.940Z,10.43
2023-01-26T03:22:28.249Z,9.87
2023-01-26T03:27:37.262Z,9.97
2023-01-26T03:32:40.822Z,9.33
2023-01-26T03:37:54.649Z,9.80
2023-01-26T03:43:17.125Z,9.50
2023-01-26T03:48:38.092Z,10.13
2023-01-26T03:53:58.833Z,10.37
2023-01-26T03:59:09.204Z,9.80
2023-01-26T04:04:30.082Z,9.63
2023-01-26T04:09:34.212Z,10.27
2023-01-26T04:14:56.415Z,9.27
2023-01-26T04:20:17.120Z,9.57
2023-01-26T04:25:22.293Z,10.30
2023-01-26T04:30:26.869Z,10.53
2023-01-26T04:35:30.078Z,9.83
2023-01-26T04:40:33.328Z,10.10
2023-01-26T04:45:37.854Z,9.40
2023-01-26T04:50:43.826Z,8.60
2023-01-26T04:55:49.304Z,9.17
2023-01-26T05:00:58.705Z,9.20
2023-01-26T05:06:05.132Z,10.43
2023-01-26T05:11:08.252Z,10.63
2023-01-26T05:16:14.430Z,9.17
2023-01-26T05:21:22.959Z,9.83
2023-01-26T05:26:26.648Z,9.63
2023-01-26T05:31:31.230Z,9.67
2023-01-26T05:36:34.734Z,9.73
2023-01-26T05:41:38.108Z,9.60
2023-01-26T05:46:45.753Z,10.60
2023-01-26T05:51:49.300Z,10.13
2023-01-26T05:56:53.407Z,9.80
2023-01-26T06:01:59.175Z,10.30
2023-01-26T06:07:02.272Z,8.97
2023-01-26T06:12:08.580Z,9.07
2023-01-26T06:17:14.670Z,8.73
2023-01-26T06:22:18.654Z,9.43
2023-01-26T06:27:22.006Z,9.37
2023-01-26T06:32:28.011Z,9.47
2023-01-26T06:37:31.265Z,9.50
2023-01-26T06:42:35.055Z,9.37
2023-01-26T06:47:39.630Z,9.03
2023-01-26T06:52:44.336Z,9.20
2023-01-26T06:57:47.901Z,9.57
2023-01-26T07:02:52.752Z,8.60
2023-01-26T07:07:55.944Z,9.03
2023-01-26T07:12:59.985Z,9.07
2023-01-26T07:18:04.996Z,8.50
2023-01-26T07:23:09.773Z,8.33
2023-01-26T07:28:13.451Z,7.43
2023-01-26T07:33:18.154Z,7.30
2023-01-26T07:38:21.620Z,7.40
2023-01-26T07:43:25.556Z,6.87
2023-01-26T07:48:31.538Z,7.20
2023-01-26T07:53:39.448Z,8.37
2023-01-26T07:58:42.723Z,7.93
2023-01-26T08:03:47.490Z,7.63
2023-01-26T08:08:53.706Z,7.60
2023-01-26T08:13:57.274Z,7.47
2023-01-26T08:19:02.954Z,8.17
2023-01-26T08:24:06.601Z,8.20
2023-01-26T08:29:10.095Z,7.83
2023-01-26T08:34:14.702Z,8.53
2023-01-26T08:39:18.056Z,9.10
2023-01-26T08:44:21.103Z,9.30
2023-01-26T08:49:25.689Z,8.90
2023-01-26T08:54:29.098Z,8.87
2023-01-26T08:59:32.394Z,8.63
2023-01-26T09:04:37.158Z,9.23
2023-01-26T09:09:41.697Z,8.90
2023-01-26T09:14:45.074Z,8.77
2023-01-26T09:19:49.767Z,8.80
2023-01-26T09:24:52.870Z,9.53
2023-01-26T09:29:56.545Z,8.53
2023-01-26T09:35:01.106Z,8.53
2023-01-26T09:40:04.529Z,8.13
2023-01-26T09:45:23.101Z,7.63
2023-01-26T09:50:31.930Z,6.70
2023-01-26T09:55:35.720Z,6.43
2023-01-26T10:00:45.402Z,7.30
2023-01-26T10:05:55.569Z,7.00
2023-01-26T10:11:03.113Z,6.73
2023-01-26T10:16:10.583Z,7.33
2023-01-26T10:21:16.925Z,6.47
2023-01-26T10:26:26.160Z,6.87
2023-01-26T10:31:32.621Z,7.10
2023-01-26T10:36:37.864Z,6.73
2023-01-26T10:41:41.463Z,5.90
2023-01-26T10:46:44.752Z,6.80
2023-01-26T10:52:08.416Z,7.40
2023-01-26T10:57:19.393Z,6.40
2023-01-26T11:02:27.720Z,6.03
2023-01-26T11:07:35.344Z,6.13
2023-01-26T11:12:38.445Z,7.10
2023-01-26T11:17:50.199Z,8.07
2023-01-26T11:23:03.122Z,7.90
2023-01-26T11:28:25.881Z,9.20
2023-01-26T11:33:37.780Z,9.13
2023-01-26T11:38:44.778Z,9.17
2023-01-26T11:44:08.030Z,10.43
2023-01-26T11:49:24.160Z,10.40
2023-01-26T11:54:47.330Z,11.47
2023-01-26T11:59:54.606Z,10.80
2023-01-26T12:05:01.116Z,11.93
2023-01-26T12:10:08.433Z,11.40
2023-01-26T12:15:15.275Z,13.00
2023-01-26T12:20:28.494Z,13.73
2023-01-26T12:25:36.811Z,13.60
2023-01-26T12:30:50.506Z,13.53
2023-01-26T12:36:09.933Z,15.80
2023-01-26T12:41:20.229Z,16.37
2023-01-26T12:46:24.862Z,14.87
2023-01-26T12:51:33.873Z,14.47
2023-01-26T12:56:43.612Z,16.23
2023-01-26T13:01:47.121Z,16.43
2023-01-26T13:07:03.324Z,16.20
2023-01-26T13:12:48.483Z,15.60
2023-01-26T13:17:57.189Z,15.37
2023-01-26T13:23:00.360Z,16.33
2023-01-26T13:28:13.792Z,16.40
2023-01-26T13:33:22.419Z,17.47
2023-01-26T13:38:34.987Z,16.27
2023-01-26T13:43:46.480Z,16.37
2023-01-26T13:48:51.519Z,17.07
2023-01-26T13:54:01.920Z,15.87
2023-01-26T13:59:13.392Z,16.90
2023-01-26T14:04:21.394Z,16.90
2023-01-26T14:09:27.659Z,17.00
2023-01-26T14:14:35.200Z,15.27
2023-01-26T14:19:41.802Z,13.07
2023-01-26T14:24:50.199Z,13.20
2023-01-26T14:29:54.770Z,11.90
2023-01-26T14:35:00.332Z,12.90
2023-01-26T14:40:21.777Z,13.00
2023-01-26T14:45:31.842Z,12.90
2023-01-26T14:50:37.194Z,12.47
2023-01-26T14:55:40.489Z,13.10
2023-01-26T15:00:49.801Z,12.50
2023-01-26T15:06:24.137Z,12.37
2023-01-26T15:11:47.697Z,11.80
2023-01-26T15:16:55.251Z,11.30
2023-01-26T15:21:58.412Z,11.57
2023-01-26T15:27:08.033Z,11.80
2023-01-26T15:32:32.428Z,10.53
2023-01-26T15:37:37.381Z,10.30
2023-01-26T15:42:41.439Z,11.07
2023-01-26T15:47:45.946Z,11.63
2023-01-26T15:52:49.095Z,10.93
2023-01-26T15:57:52.834Z,10.73
2023-01-26T16:02:58.611Z,11.27
2023-01-26T16:08:03.185Z,11.63
2023-01-26T16:13:10.757Z,12.37
2023-01-26T16:18:15.661Z,10.57
2023-01-26T16:23:23.828Z,11.13
2023-01-26T16:28:28.218Z,10.93
2023-01-26T16:33:33.172Z,10.83
2023-01-26T16:38:36.538Z,10.57
2023-01-26T16:43:42.025Z,11.60
2023-01-26T16:48:47.867Z,10.47
2023-01-26T16:53:51.492Z,10.50
2023-01-26T16:58:55.724Z,10.10
2023-01-26T17:04:04.382Z,8.60
2023-01-26T17:09:08.596Z,9.50
2023-01-26T17:14:13.293Z,9.47
2023-01-26T17:19:18.183Z,9.57
2023-01-26T17:24:22.871Z,8.77
2023-01-26T17:29:26.351Z,9.57
2023-01-26T17:34:30.864Z,9.03
2023-01-26T17:39:34.182Z,9.20
2023-01-26T17:44:37.570Z,10.30
2023-01-26T17:49:42.384Z,9.93
2023-01-26T17:54:45.527Z,12.33
2023-01-26T17:59:49.670Z,11.57
2023-01-26T18:04:54.455Z,11.17
2023-01-26T18:10:03.924Z,12.30
2023-01-26T18:15:08.540Z,12.43
2023-01-26T18:20:15.165Z,12.00
2023-01-26T18:25:21.108Z,10.60
2023-01-26T18:30:24.561Z,10.43
2023-01-26T18:35:29.465Z,12.33
2023-01-26T18:40:32.867Z,12.27
2023-01-26T18:45:36.475Z,13.20
2023-01-26T18:50:41.165Z,9.37
2023-01-26T18:55:44.455Z,9.40
2023-01-26T19:00:47.890Z,8.93
2023-01-26T19:05:52.974Z,8.90
2023-01-26T19:10:56.098Z,10.77
2023-01-26T19:15:59.290Z,11.47
2023-01-26T19:21:06.008Z,11.07
2023-01-26T19:26:14.228Z,11.27
2023-01-26T19:31:19.299Z,11.07
2023-01-26T19:36:24.975Z,11.93
2023-01-26T19:41:29.124Z,13.07
2023-01-26T19:46:32.524Z,9.23
2023-01-26T19:51:51.057Z,9.03
2023-01-26T19:56:54.428Z,8.67
2023-01-26T20:01:57.647Z,8.63
2023-01-26T20:07:14.340Z,8.70
2023-01-26T20:12:20.477Z,8.70
2023-01-26T20:17:26.962Z,9.13
2023-01-26T20:22:34.090Z,9.53
2023-01-26T20:27:37.470Z,9.83
2023-01-26T20:32:40.554Z,9.67
2023-01-26T20:37:48.251Z,9.63
2023-01-26T20:42:54.606Z,10.43
2023-01-26T20:47:59.695Z,10.53
2023-01-26T20:53:04.942Z,9.97
2023-01-26T20:58:08.893Z,10.60
2023-01-26T21:03:12.048Z,9.80
2023-01-26T21:08:16.619Z,9.67
2023-01-26T21:13:19.787Z,9.10
2023-01-26T21:18:23.235Z,9.70
2023-01-26T21:23:28.066Z,10.07
2023-01-26T21:28:32.270Z,9.33
2023-01-26T21:33:38.553Z,12.20
2023-01-26T21:38:48.684Z,10.40
2023-01-26T21:43:56.107Z,10.83
2023-01-26T21:49:00.091Z,10.87
2023-01-26T21:54:07.165Z,12.10
2023-01-26T21:59:14.733Z,13.47
2023-01-26T22:04:21.087Z,12.37
2023-01-26T22:09:27.468Z,12.70
2023-01-26T22:14:31.021Z,11.87
2023-01-26T22:19:34.232Z,10.90
2023-01-26T22:24:38.763Z,10.37
2023-01-26T22:29:43.290Z,11.70
2023-01-26T22:34:47.875Z,11.30
2023-01-26T22:39:52.404Z,11.43
2023-01-26T22:44:56.157Z,12.00
2023-01-26T22:49:59.894Z,11.07
2023-01-26T22:55:04.643Z,12.40
2023-01-26T23:00:09.759Z,9.97
2023-01-26T23:05:34.076Z,11.90
2023-01-26T23:10:39.183Z,11.27
2023-01-26T23:15:42.941Z,10.60
2023-01-26T23:20:46.115Z,10.87
2023-01-26T23:25:54.236Z,11.37
2023-01-26T23:30:58.856Z,11.90
2023-01-26T23:36:02.998Z,10.80
2023-01-26T23:41:08.637Z,11.30
2023-01-26T23:46:12.750Z,12.60
2023-01-26T23:51:16.667Z,11.93
2023-01-26T23:56:21.179Z,11.17
